Time;durP1;ratioP1;P1;durP2;ratioP2;P2;SDS_P1;SDS_P2;PMS_P1;PMS_P2;Temp;Humidity;BMP_temperature;BMP_pressure;BME280_temperature;BME280_humidity;BME280_pressure;Samples;Min_cycle;Max_cycle;Signal;HPM_P1;HPM_P2
2022/05/25 00:01:14;;;;;;;;;;;;;;;12.21;58.89;100467.44;5046691;28;19909;-17
2022/05/25 00:03:39;;;;;;;;;;;;;;;12.18;58.93;100468.38;5047559;28;19912;-18
2022/05/25 00:06:05;;;;;;;;;;;;;;;12.14;59.21;100470.19;5048568;28;19908;-17
2022/05/25 00:08:30;;;;;;;;;;;;;;;12.12;59.15;100473.75;5046620;28;19921;-17
2022/05/25 00:10:56;;;;;;;;;;;;;;;12.07;59.36;100471.19;5047531;28;19923;-17
2022/05/25 00:13:21;;;;;;;;;;;;;;;12.05;59.09;100470.34;5046495;28;19905;-17
2022/05/25 00:15:46;;;;;;;;;;;;;;;12.03;59.34;100469.47;5047185;28;19913;-17
2022/05/25 00:18:11;;;;;;;;;;;;;;;12.00;59.03;100474.84;5046017;28;19913;-18
2022/05/25 00:20:37;;;;;;;;;;;;;;;11.96;59.47;100473.13;5046848;28;19913;-19
2022/05/25 00:23:03;;;;;;;;;;;;;;;11.93;59.43;100474.06;5045875;28;19919;-17
2022/05/25 00:25:30;;;;;;;;;;;;;;;11.88;59.18;100465.34;5046903;28;19982;-18
2022/05/25 00:27:55;;;;;;;;;;;;;;;11.87;59.38;100479.47;5045882;28;19912;-17
2022/05/25 00:30:21;;;;;;;;;;;;;;;11.84;59.24;100492.75;5046295;28;19912;-17
2022/05/25 00:32:46;;;;;;;;;;;;;;;11.81;59.56;100480.47;5046692;28;20396;-17
2022/05/25 00:35:12;;;;;;;;;;;;;;;11.77;59.53;100479.63;5044738;28;19917;-17
2022/05/25 00:37:39;;;;;;;;;;;;;;;11.75;59.53;100486.72;5045376;28;19971;-17
2022/05/25 00:40:05;;;;;;;;;;;;;;;11.72;59.51;100481.47;5045520;28;19912;-17
2022/05/25 00:42:30;;;;;;;;;;;;;;;11.70;59.01;100482.41;5046835;28;19908;-17
2022/05/25 00:44:55;;;;;;;;;;;;;;;11.65;59.39;100486.00;5047479;28;20768;-17
2022/05/25 00:47:21;;;;;;;;;;;;;;;11.61;59.56;100484.28;5046656;28;19924;-17
2022/05/25 00:49:46;;;;;;;;;;;;;;;11.59;59.21;100490.50;5032135;28;19962;-17
2022/05/25 00:52:13;;;;;;;;;;;;;;;11.56;59.45;100496.69;5045130;28;20015;-17
2022/05/25 00:54:39;;;;;;;;;;;;;;;11.52;59.55;100495.91;5028437;28;19915;-17
2022/05/25 00:57:09;;;;;;;;;;;;;;;11.50;59.80;100488.88;5046106;28;19954;-17
2022/05/25 00:59:36;;;;;;;;;;;;;;;11.47;59.79;100487.16;5047393;28;20398;-17
2022/05/25 01:02:01;;;;;;;;;;;;;;;11.46;59.55;100493.34;5032361;28;20013;-18
2022/05/25 01:04:26;;;;;;;;;;;;;;;11.45;59.65;100496.00;5046116;28;19995;-17
2022/05/25 01:07:07;;;;;;;;;;;;;;;11.42;59.74;100495.16;5045722;28;19916;-18
2022/05/25 01:09:36;;;;;;;;;;;;;;;11.38;59.73;100493.47;5047038;28;20296;-17
2022/05/25 01:12:20;;;;;;;;;;;;;;;11.37;59.81;100502.28;5028840;28;20319;-17
2022/05/25 01:14:52;;;;;;;;;;;;;;;11.33;59.92;100503.22;5045567;28;19917;-17
2022/05/25 01:17:21;;;;;;;;;;;;;;;11.31;59.78;100505.03;5029173;28;19916;-17
2022/05/25 01:19:50;;;;;;;;;;;;;;;11.31;60.08;100501.50;5029717;28;19916;-20
2022/05/25 01:22:15;;;;;;;;;;;;;;;11.27;59.85;100504.19;5045126;28;20026;-17
2022/05/25 01:24:49;;;;;;;;;;;;;;;11.25;59.81;100508.63;5046630;28;19987;-17
2022/05/25 01:27:28;;;;;;;;;;;;;;;11.28;59.87;100519.13;5046315;28;20269;-17
2022/05/25 01:30:20;;;;;;;;;;;;;;;11.27;60.03;100522.66;5028747;28;19909;-17
2022/05/25 01:32:48;;;;;;;;;;;;;;;11.22;60.10;100524.50;5041396;28;20032;-18
2022/05/25 01:35:36;;;;;;;;;;;;;;;11.23;60.19;100534.16;5045146;28;19909;-17
2022/05/25 01:38:13;;;;;;;;;;;;;;;11.22;60.15;100535.06;5018815;28;19977;-17
2022/05/25 01:40:42;;;;;;;;;;;;;;;11.19;60.17;100529.81;5043951;28;19912;-18
2022/05/25 01:43:11;;;;;;;;;;;;;;;11.18;60.47;100535.13;5042552;28;19955;-18
2022/05/25 01:45:38;;;;;;;;;;;;;;;11.18;60.41;100532.47;5032352;28;19999;-17
2022/05/25 01:48:05;;;;;;;;;;;;;;;11.15;60.35;100526.38;5026507;28;20011;-17
2022/05/25 01:50:33;;;;;;;;;;;;;;;11.15;60.45;100529.00;5046967;28;20337;-17
2022/05/25 01:52:58;;;;;;;;;;;;;;;11.14;60.25;100521.97;5030595;28;19913;-17
2022/05/25 01:55:28;;;;;;;;;;;;;;;11.10;60.67;100520.25;5047426;28;20364;-17
2022/05/25 01:57:58;;;;;;;;;;;;;;;11.09;60.51;100513.25;5031108;28;19923;-18
2022/05/25 02:00:35;;;;;;;;;;;;;;;11.07;60.58;100514.16;5046784;28;19975;-17
2022/05/25 02:05:49;;;;;;;;;;;;;;;11.08;60.75;100521.19;5043856;28;19920;-17
2022/05/25 02:08:33;;;;;;;;;;;;;;;11.05;60.57;100511.53;5030009;28;19946;-18
2022/05/25 02:11:17;;;;;;;;;;;;;;;11.02;60.54;100514.22;5044719;28;19916;-18
2022/05/25 02:13:49;;;;;;;;;;;;;;;11.06;60.87;100515.03;5040909;28;20985;-17
2022/05/25 02:16:16;;;;;;;;;;;;;;;11.05;60.59;100516.81;5023631;28;19909;-17
2022/05/25 02:18:48;;;;;;;;;;;;;;;10.99;60.89;100511.59;5025702;28;19912;-18
2022/05/25 02:21:28;;;;;;;;;;;;;;;10.97;60.64;100518.69;5040904;28;19944;-17
2022/05/25 02:24:14;;;;;;;;;;;;;;;10.98;60.75;100517.78;5046049;28;19913;-17
2022/05/25 02:26:42;;;;;;;;;;;;;;;10.97;60.55;100514.25;5044629;28;19995;-17
2022/05/25 02:29:15;;;;;;;;;;;;;;;10.96;60.75;100516.94;5043385;28;20372;-17
2022/05/25 02:31:42;;;;;;;;;;;;;;;10.97;60.41;100513.41;5031516;28;19935;-18
2022/05/25 02:34:09;;;;;;;;;;;;;;;10.97;60.80;100513.41;5048705;28;20011;-17
2022/05/25 02:36:35;;;;;;;;;;;;;;;10.96;60.85;100519.56;5048062;28;19932;-17
2022/05/25 02:39:02;;;;;;;;;;;;;;;10.93;60.95;100511.72;5033791;28;20372;-17
2022/05/25 02:41:30;;;;;;;;;;;;;;;10.89;61.11;100506.47;5050425;28;19908;-17
2022/05/25 02:43:55;;;;;;;;;;;;;;;10.90;60.95;100502.94;5050611;28;20019;-17
2022/05/25 02:46:20;;;;;;;;;;;;;;;10.90;61.25;100504.69;5038121;28;20421;-18
2022/05/25 02:48:45;;;;;;;;;;;;;;;10.90;61.23;100502.94;5051144;28;19927;-17
2022/05/25 02:51:11;;;;;;;;;;;;;;;10.88;61.36;100509.13;5047840;28;19974;-17
2022/05/25 02:53:36;;;;;;;;;;;;;;;10.85;61.28;100515.31;5049411;28;19944;-18
2022/05/25 02:56:02;;;;;;;;;;;;;;;10.87;61.39;100513.50;5052726;28;20390;-17
2022/05/25 02:58:27;;;;;;;;;;;;;;;10.87;60.82;100513.50;5049997;28;19961;-17
2022/05/25 03:00:53;;;;;;;;;;;;;;;10.82;61.21;100531.19;5048403;28;19931;-18
2022/05/25 03:03:18;;;;;;;;;;;;;;;10.81;61.39;100532.09;5032999;28;20276;-17
2022/05/25 03:05:43;;;;;;;;;;;;;;;10.83;61.59;100530.28;5048573;28;19999;-17
2022/05/25 03:08:09;;;;;;;;;;;;;;;10.81;61.46;100536.47;5048800;28;19920;-17
2022/05/25 03:10:34;;;;;;;;;;;;;;;10.81;61.40;100526.81;5050389;28;19943;-17
2022/05/25 03:12:59;;;;;;;;;;;;;;;10.81;61.45;100523.28;5049818;28;20257;-17
2022/05/25 03:15:24;;;;;;;;;;;;;;;10.82;61.47;100540.84;5034554;28;19953;-18
2022/05/25 03:17:50;;;;;;;;;;;;;;;10.80;61.59;100554.06;5047962;28;20009;-17
2022/05/25 03:20:15;;;;;;;;;;;;;;;10.81;61.44;100553.19;5050240;28;19908;-19
2022/05/25 03:22:44;;;;;;;;;;;;;;;10.82;61.73;100552.28;5048818;28;19960;-17
2022/05/25 03:25:09;;;;;;;;;;;;;;;10.81;61.46;100565.50;5030309;28;19916;-18
2022/05/25 03:27:34;;;;;;;;;;;;;;;10.78;61.62;100566.41;5049094;28;19912;-17
2022/05/25 03:30:00;;;;;;;;;;;;;;;10.76;61.78;100562.91;5049656;28;19909;-18
2022/05/25 03:32:27;;;;;;;;;;;;;;;10.77;61.82;100560.25;5049422;28;19913;-17
2022/05/25 03:34:52;;;;;;;;;;;;;;;10.78;61.79;100571.69;5034155;28;19917;-17
2022/05/25 03:37:17;;;;;;;;;;;;;;;10.77;61.77;100568.16;5049805;28;19913;-18
2022/05/25 03:39:42;;;;;;;;;;;;;;;10.79;61.49;100568.16;5049515;28;19923;-17
2022/05/25 03:42:08;;;;;;;;;;;;;;;10.79;61.73;100568.16;5047715;28;19939;-17
2022/05/25 03:44:36;;;;;;;;;;;;;;;10.80;61.63;100582.22;5030815;28;19909;-18
2022/05/25 03:47:01;;;;;;;;;;;;;;;10.81;61.98;100581.31;5031367;28;20230;-17
2022/05/25 03:49:26;;;;;;;;;;;;;;;10.78;62.07;100576.97;5031868;28;19964;-17
2022/05/25 03:51:52;;;;;;;;;;;;;;;10.81;61.49;100579.56;5047166;28;19917;-17
2022/05/25 03:54:17;;;;;;;;;;;;;;;10.83;61.57;100579.53;5046762;28;19919;-17
2022/05/25 03:56:43;;;;;;;;;;;;;;;10.81;62.21;100574.28;5045548;28;20404;-17
2022/05/25 03:59:08;;;;;;;;;;;;;;;10.82;62.09;100577.78;5042915;28;19917;-17
2022/05/25 04:01:34;;;;;;;;;;;;;;;10.84;61.78;100591.84;5043276;28;19917;-17
2022/05/25 04:04:00;;;;;;;;;;;;;;;10.83;61.89;100588.31;5048765;28;19988;-17
2022/05/25 04:06:25;;;;;;;;;;;;;;;10.86;61.99;100595.31;5049134;28;20099;-17
2022/05/25 04:08:50;;;;;;;;;;;;;;;10.85;61.79;100599.75;5049578;28;20368;-17
2022/05/25 04:11:16;;;;;;;;;;;;;;;10.86;62.25;100604.13;5047146;28;20416;-17
2022/05/25 04:13:41;;;;;;;;;;;;;;;10.86;62.18;100596.22;5048390;28;19909;-17
2022/05/25 04:16:06;;;;;;;;;;;;;;;10.86;62.31;100606.75;5048333;28;20269;-17
2022/05/25 04:18:32;;;;;;;;;;;;;;;10.87;62.36;100605.88;5049651;28;20378;-17
2022/05/25 04:20:57;;;;;;;;;;;;;;;10.90;61.99;100602.31;5048111;28;19920;-17
2022/05/25 04:23:26;;;;;;;;;;;;;;;10.89;62.11;100605.84;5036555;28;19908;-17
2022/05/25 04:25:52;;;;;;;;;;;;;;;10.91;62.42;100610.22;5047143;28;19952;-17
2022/05/25 04:28:17;;;;;;;;;;;;;;;10.98;62.23;100610.16;5047473;28;20445;-17
2022/05/25 04:30:42;;;;;;;;;;;;;;;10.98;62.29;100607.50;5047736;28;19951;-17
2022/05/25 04:33:07;;;;;;;;;;;;;;;11.00;62.22;100608.34;5049474;28;19952;-18
2022/05/25 04:35:32;;;;;;;;;;;;;;;11.01;62.48;100605.69;5035590;28;19996;-17
2022/05/25 04:37:58;;;;;;;;;;;;;;;11.07;62.23;100606.53;5048145;28;19951;-17
2022/05/25 04:40:23;;;;;;;;;;;;;;;11.10;61.98;100619.69;5048276;28;20007;-18
2022/05/25 04:42:48;;;;;;;;;;;;;;;11.11;62.02;100627.56;5048502;28;20022;-17
2022/05/25 04:45:14;;;;;;;;;;;;;;;11.12;62.29;100623.19;5047192;28;19909;-17
2022/05/25 04:47:40;;;;;;;;;;;;;;;11.14;62.46;100627.53;5047702;28;19913;-17
2022/05/25 04:50:07;;;;;;;;;;;;;;;11.16;62.19;100638.97;5048501;28;19954;-17
2022/05/25 04:52:32;;;;;;;;;;;;;;;11.20;62.79;100621.31;5052099;28;19928;-17
2022/05/25 04:54:57;;;;;;;;;;;;;;;11.26;62.93;100630.91;5033943;28;19917;-18
2022/05/25 04:57:23;;;;;;;;;;;;;;;11.29;62.75;100634.41;5048234;28;19970;-18
2022/05/25 04:59:52;;;;;;;;;;;;;;;11.33;62.74;100644.94;5047995;28;19916;-18
2022/05/25 05:02:17;;;;;;;;;;;;;;;11.35;62.95;100635.22;5047409;28;19916;-18
2022/05/25 05:04:43;;;;;;;;;;;;;;;11.39;62.86;100635.16;5047496;28;19924;-18
2022/05/25 05:07:08;;;;;;;;;;;;;;;11.42;62.45;100635.13;5047272;28;19915;-19
2022/05/25 05:09:34;;;;;;;;;;;;;;;11.54;63.34;100635.88;5049084;28;19920;-19
2022/05/25 05:11:59;;;;;;;;;;;;;;;11.56;62.98;100634.06;5047467;28;19999;-18
2022/05/25 05:14:24;;;;;;;;;;;;;;;11.59;63.10;100634.00;5041948;28;19908;-18
2022/05/25 05:16:54;;;;;;;;;;;;;;;11.62;63.38;100639.25;5046640;28;19908;-18
2022/05/25 05:19:19;;;;;;;;;;;;;;;11.64;63.83;100637.47;5046999;28;19971;-18
2022/05/25 05:21:45;;;;;;;;;;;;;;;11.64;63.71;100642.75;5047677;28;19921;-18
2022/05/25 05:24:10;;;;;;;;;;;;;;;11.68;63.87;100638.31;5046672;28;19998;-18
2022/05/25 05:26:36;;;;;;;;;;;;;;;11.72;64.06;100649.69;5047353;28;19939;-18
2022/05/25 05:29:01;;;;;;;;;;;;;;;11.76;64.23;100656.66;5034129;28;19943;-18
2022/05/25 05:31:27;;;;;;;;;;;;;;;11.80;64.17;100650.44;5048929;28;20578;-19
2022/05/25 05:33:52;;;;;;;;;;;;;;;11.85;64.35;100651.28;5046320;28;19909;-19
2022/05/25 05:36:18;;;;;;;;;;;;;;;11.86;64.36;100639.78;5047568;28;19909;-18
2022/05/25 05:39:04;;;;;;;;;;;;;;;11.90;64.11;100656.47;5031955;28;19909;-19
2022/05/25 05:41:30;;;;;;;;;;;;;;;11.93;64.10;100659.94;5046262;28;19912;-18
2022/05/25 05:43:56;;;;;;;;;;;;;;;11.97;64.33;100660.75;5045071;28;20164;-18
2022/05/25 05:46:21;;;;;;;;;;;;;;;11.99;64.44;100658.09;5047599;28;19919;-19
2022/05/25 05:48:46;;;;;;;;;;;;;;;12.02;64.41;100664.22;5046423;28;19924;-18
2022/05/25 05:51:11;;;;;;;;;;;;;;;12.07;63.87;100666.81;5042950;28;19913;-18
2022/05/25 05:53:37;;;;;;;;;;;;;;;12.10;63.90;100668.56;5035611;28;20035;-18
2022/05/25 05:56:02;;;;;;;;;;;;;;;12.13;63.30;100669.38;5047755;28;20355;-18
2022/05/25 05:58:27;;;;;;;;;;;;;;;12.18;63.73;100670.16;5047287;28;19908;-19
2022/05/25 06:00:52;;;;;;;;;;;;;;;12.22;63.76;100675.41;5046566;28;19912;-18
2022/05/25 06:03:18;;;;;;;;;;;;;;;12.28;63.67;100667.38;5049033;28;19917;-18
2022/05/25 06:05:46;;;;;;;;;;;;;;;12.32;64.81;100679.66;5047633;28;20447;-19
2022/05/25 06:08:13;;;;;;;;;;;;;;;12.37;64.79;100679.59;5033645;28;19929;-19
2022/05/25 06:10:39;;;;;;;;;;;;;;;12.42;65.75;100688.31;5051124;28;19912;-19
2022/05/25 06:13:04;;;;;;;;;;;;;;;12.45;65.19;100683.84;5021780;28;19923;-19
2022/05/25 06:20:58;;;;;;;;;;;;;;;12.57;65.58;100687.16;5043172;28;19927;-19
2022/05/25 06:23:23;;;;;;;;;;;;;;;12.62;65.39;100685.34;5052451;28;19913;-18
2022/05/25 06:25:49;;;;;;;;;;;;;;;12.68;65.60;100689.66;5050558;28;19916;-20
2022/05/25 06:28:14;;;;;;;;;;;;;;;12.70;65.07;100683.41;5050029;28;19921;-18
2022/05/25 06:30:39;;;;;;;;;;;;;;;12.73;64.87;100693.06;5034271;28;20368;-19
2022/05/25 06:33:05;;;;;;;;;;;;;;;12.79;65.27;100692.97;5051785;28;19912;-18
2022/05/25 06:35:30;;;;;;;;;;;;;;;12.82;65.19;100697.34;5048729;28;19975;-19
2022/05/25 06:37:56;;;;;;;;;;;;;;;12.85;65.32;100710.53;5037766;28;20368;-18
2022/05/25 06:40:21;;;;;;;;;;;;;;;12.87;64.62;100706.06;5037590;28;19916;-18
2022/05/25 06:42:46;;;;;;;;;;;;;;;12.89;65.76;100709.56;5051070;28;19924;-19
2022/05/25 06:45:11;;;;;;;;;;;;;;;12.93;65.33;100711.25;5053062;28;19928;-18
2022/05/25 06:47:37;;;;;;;;;;;;;;;12.99;65.26;100712.03;5050873;28;20365;-19
2022/05/25 06:50:03;;;;;;;;;;;;;;;13.01;65.17;100713.72;5049787;28;19916;-19
2022/05/25 06:52:29;;;;;;;;;;;;;;;13.07;65.55;100718.03;5048361;28;20844;-18
2022/05/25 06:54:54;;;;;;;;;;;;;;;13.11;66.48;100727.69;5049448;28;19953;-19
2022/05/25 06:57:19;;;;;;;;;;;;;;;13.16;66.77;100732.88;5045060;28;19908;-19
2022/05/25 06:59:45;;;;;;;;;;;;;;;13.19;66.36;100724.91;5048861;28;20265;-18
2022/05/25 07:02:10;;;;;;;;;;;;;;;13.22;66.50;100732.78;5047973;28;19999;-19
2022/05/25 07:04:35;;;;;;;;;;;;;;;13.25;65.95;100734.50;5049922;28;20577;-19
2022/05/25 07:07:01;;;;;;;;;;;;;;;13.29;66.40;100733.53;5050328;28;19919;-18
2022/05/25 07:09:26;;;;;;;;;;;;;;;13.32;65.67;100739.66;5050271;28;19921;-19
2022/05/25 07:11:51;;;;;;;;;;;;;;;13.34;65.82;100734.34;5050775;28;19909;-18
2022/05/25 07:14:18;;;;;;;;;;;;;;;13.41;67.51;100743.03;5050188;28;20329;-18
2022/05/25 07:16:43;;;;;;;;;;;;;;;13.47;67.10;100737.59;5033139;28;19920;-18
2022/05/25 07:19:08;;;;;;;;;;;;;;;13.53;67.91;100736.63;5048267;28;20003;-18
2022/05/25 07:21:34;;;;;;;;;;;;;;;13.58;68.28;100734.78;5049430;28;19920;-18
2022/05/25 07:24:00;;;;;;;;;;;;;;;13.64;67.66;100737.28;5049698;28;19997;-18
2022/05/25 07:26:25;;;;;;;;;;;;;;;13.70;68.03;100742.47;5050597;28;19916;-19
2022/05/25 07:28:51;;;;;;;;;;;;;;;13.77;67.91;100745.84;5050362;28;19928;-19
2022/05/25 07:31:23;;;;;;;;;;;;;;;13.83;68.03;100745.72;5049000;28;19966;-18
2022/05/25 07:33:50;;;;;;;;;;;;;;;13.91;67.97;100750.00;5029559;28;19919;-18
2022/05/25 07:36:15;;;;;;;;;;;;;;;13.98;67.69;100747.16;5047126;28;19919;-18
2022/05/25 07:38:42;;;;;;;;;;;;;;;14.08;67.95;100746.97;5026879;28;19909;-18
2022/05/25 07:41:07;;;;;;;;;;;;;;;14.16;68.41;100750.31;5044777;28;19967;-19
2022/05/25 07:43:32;;;;;;;;;;;;;;;14.26;67.73;100747.44;5048830;28;19908;-18
2022/05/25 07:45:58;;;;;;;;;;;;;;;14.37;67.37;100748.03;5049156;28;19909;-19
2022/05/25 07:48:23;;;;;;;;;;;;;;;14.48;67.00;100747.81;5049780;28;19919;-18
2022/05/25 07:50:48;;;;;;;;;;;;;;;14.59;66.28;100747.53;5049076;28;19963;-18
2022/05/25 07:56:00;;;;;;;;;;;;;;;14.81;66.11;100755.00;5036886;28;19924;-18
2022/05/25 07:58:25;;;;;;;;;;;;;;;14.95;66.19;100760.84;5033841;28;19962;-18
2022/05/25 08:00:51;;;;;;;;;;;;;;;15.09;65.74;100754.28;5048681;28;19913;-19
2022/05/25 08:06:00;;;;;;;;;;;;;;;15.42;65.43;100742.75;5049094;28;20378;-19
2022/05/25 08:08:25;;;;;;;;;;;;;;;15.51;64.73;100740.69;5047634;28;20003;-19
2022/05/25 08:10:52;;;;;;;;;;;;;;;15.61;64.91;100745.78;5036860;28;20032;-20
2022/05/25 08:13:17;;;;;;;;;;;;;;;15.77;64.87;100748.81;5048856;28;20004;-20
2022/05/25 08:15:43;;;;;;;;;;;;;;;15.88;64.05;100748.53;5033693;28;20007;-19
2022/05/25 08:18:09;;;;;;;;;;;;;;;16.02;64.68;100748.13;5038284;28;19912;-19
2022/05/25 08:20:35;;;;;;;;;;;;;;;16.10;63.83;100742.56;5044226;28;19940;-20
2022/05/25 08:23:02;;;;;;;;;;;;;;;16.23;63.70;100743.94;5048378;28;20409;-19
2022/05/25 08:25:27;;;;;;;;;;;;;;;16.37;63.93;100747.94;5048767;28;19912;-19
2022/05/25 08:27:53;;;;;;;;;;;;;;;16.49;63.74;100750.19;5049274;28;19921;-19
2022/05/25 08:30:19;;;;;;;;;;;;;;;16.73;64.44;100739.66;5047289;28;19959;-20
2022/05/25 08:32:44;;;;;;;;;;;;;;;16.97;64.03;100745.03;5049898;28;19959;-19
2022/05/25 08:35:09;;;;;;;;;;;;;;;17.05;62.52;100737.69;5048314;28;19908;-19
2022/05/25 08:37:34;;;;;;;;;;;;;;;17.12;62.36;100746.34;5046370;28;20372;-19
2022/05/25 08:40:00;;;;;;;;;;;;;;;17.22;63.20;100743.34;5047618;28;19909;-19
2022/05/25 08:42:26;;;;;;;;;;;;;;;17.51;63.81;100739.59;5044808;28;19916;-19
2022/05/25 08:44:51;;;;;;;;;;;;;;;17.66;63.27;100739.97;5047232;28;19909;-20
2022/05/25 08:47:16;;;;;;;;;;;;;;;17.78;62.59;100736.81;5049272;28;19916;-19
2022/05/25 08:49:43;;;;;;;;;;;;;;;17.80;61.84;100736.75;5046666;28;19962;-19
2022/05/25 08:52:20;;;;;;;;;;;;;;;18.01;62.73;100731.53;5047829;28;19908;-19
2022/05/25 08:54:45;;;;;;;;;;;;;;;18.14;61.41;100729.28;5028771;28;20411;-19
2022/05/25 08:57:18;;;;;;;;;;;;;;;18.33;62.76;100734.72;5028821;28;19916;-19
2022/05/25 08:59:57;;;;;;;;;;;;;;;18.57;61.65;100743.53;5028622;28;19913;-19
2022/05/25 09:02:29;;;;;;;;;;;;;;;18.83;60.34;100736.22;5047450;28;19909;-19
2022/05/25 09:04:56;;;;;;;;;;;;;;;18.93;59.85;100743.84;5046633;28;20292;-19
2022/05/25 09:29:08;;;;;;;;;;;;;;;20.05;54.33;100733.53;5046293;28;20230;-20
2022/05/25 09:34:48;;;;;;;;;;;;;;;20.25;54.18;100734.34;5046970;28;19948;-19
2022/05/25 09:37:32;;;;;;;;;;;;;;;20.39;54.67;100728.31;5031689;28;19956;-19
2022/05/25 09:40:00;;;;;;;;;;;;;;;20.54;53.45;100737.38;5045101;28;20438;-19
2022/05/25 09:42:25;;;;;;;;;;;;;;;20.60;53.17;100728.16;5032079;28;20004;-20
2022/05/25 09:44:52;;;;;;;;;;;;;;;20.63;52.31;100722.66;5033599;28;20031;-19
2022/05/25 09:47:19;;;;;;;;;;;;;;;20.69;51.33;100735.75;5048735;28;19912;-19
2022/05/25 09:49:48;;;;;;;;;;;;;;;20.76;51.06;100721.09;5048483;28;20008;-19
2022/05/25 09:52:15;;;;;;;;;;;;;;;20.95;50.73;100730.03;5045972;28;20372;-19
2022/05/25 09:54:42;;;;;;;;;;;;;;;20.98;50.43;100729.88;5031055;28;20015;-19
2022/05/25 09:57:36;;;;;;;;;;;;;;;21.00;51.43;100730.66;5048581;28;19909;-19
2022/05/25 10:00:21;;;;;;;;;;;;;;;21.15;51.78;100732.53;5036018;28;19919;-19
2022/05/25 10:02:47;;;;;;;;;;;;;;;21.28;51.50;100731.88;5046617;28;19909;-19
2022/05/25 10:05:16;;;;;;;;;;;;;;;21.37;50.82;100734.06;5049137;28;20054;-19
2022/05/25 10:07:49;;;;;;;;;;;;;;;21.44;49.23;100733.75;5049149;28;20331;-19
2022/05/25 10:10:14;;;;;;;;;;;;;;;21.48;48.97;100721.88;5048716;28;20300;-19
2022/05/25 10:12:39;;;;;;;;;;;;;;;21.56;49.00;100724.13;5047478;28;19908;-19
2022/05/25 10:15:09;;;;;;;;;;;;;;;21.60;48.90;100718.53;5032053;28;19919;-19
2022/05/25 10:17:41;;;;;;;;;;;;;;;21.63;48.41;100720.16;5046595;28;19913;-20
2022/05/25 10:20:22;;;;;;;;;;;;;;;21.64;48.73;100717.41;5047257;28;19935;-19
2022/05/25 10:22:48;;;;;;;;;;;;;;;21.71;47.74;100717.94;5047144;28;20295;-19
2022/05/25 10:25:32;;;;;;;;;;;;;;;21.65;48.20;100708.41;5032236;28;20390;-19
2022/05/25 10:27:57;;;;;;;;;;;;;;;21.62;48.88;100697.84;5047178;28;20441;-19
2022/05/25 10:38:44;;;;;;;;;;;;;;;21.66;48.73;100703.91;5031564;28;19920;-19
2022/05/25 10:44:20;;;;;;;;;;;;;;;21.64;48.72;100701.31;5046949;28;19920;-19
2022/05/25 10:46:48;;;;;;;;;;;;;;;21.55;49.07;100709.88;5045254;28;19916;-19
2022/05/25 10:49:14;;;;;;;;;;;;;;;21.53;48.16;100709.06;5031405;28;20424;-19
2022/05/25 10:51:41;;;;;;;;;;;;;;;21.47;48.72;100709.44;5046724;28;19935;-19
2022/05/25 10:57:19;;;;;;;;;;;;;;;21.36;49.76;100702.84;5049675;28;19916;-19
2022/05/25 10:59:50;;;;;;;;;;;;;;;21.48;50.21;100703.97;5050836;28;20023;-19
2022/05/25 11:02:33;;;;;;;;;;;;;;;21.61;48.85;100701.47;5050259;28;20031;-19
2022/05/25 11:05:07;;;;;;;;;;;;;;;21.70;49.29;100693.88;5031573;28;19908;-19
2022/05/25 11:07:37;;;;;;;;;;;;;;;21.77;49.05;100698.84;5033757;28;19940;-19
2022/05/25 11:10:20;;;;;;;;;;;;;;;21.83;50.05;100691.38;5050853;28;19916;-19
2022/05/25 11:12:45;;;;;;;;;;;;;;;21.86;49.83;100692.09;5051082;28;19938;-19
2022/05/25 11:15:29;;;;;;;;;;;;;;;21.88;48.82;100692.84;5051233;28;19935;-19
2022/05/25 11:18:13;;;;;;;;;;;;;;;21.92;48.50;100697.13;5048796;28;20078;-19
2022/05/25 11:20:38;;;;;;;;;;;;;;;21.91;48.08;100691.84;5048426;28;20284;-21
2022/05/25 11:23:22;;;;;;;;;;;;;;;21.87;47.66;100701.03;5050978;28;19909;-19
2022/05/25 11:26:06;;;;;;;;;;;;;;;21.81;48.11;100698.66;5051141;28;19920;-19
2022/05/25 11:28:50;;;;;;;;;;;;;;;21.71;49.13;100707.19;5050121;28;19917;-20
2022/05/25 11:31:31;;;;;;;;;;;;;;;21.62;49.92;100703.22;5051285;28;19913;-20
2022/05/25 11:34:03;;;;;;;;;;;;;;;21.55;50.61;100696.47;5033253;28;19908;-19
2022/05/25 11:36:33;;;;;;;;;;;;;;;21.52;51.23;100702.00;5050265;28;20594;-19
2022/05/25 11:38:58;;;;;;;;;;;;;;;21.52;51.91;100696.63;5032454;28;19913;-19
2022/05/25 11:41:42;;;;;;;;;;;;;;;21.55;51.97;100688.41;5047918;28;19917;-19
2022/05/25 11:44:08;;;;;;;;;;;;;;;21.65;52.46;100702.19;5048466;28;19913;-19
2022/05/25 11:46:46;;;;;;;;;;;;;;;21.73;52.83;100693.69;5050048;28;19908;-21
2022/05/25 11:49:30;;;;;;;;;;;;;;;21.77;52.38;100688.09;5049148;28;19998;-19
2022/05/25 11:51:55;;;;;;;;;;;;;;;21.84;52.00;100690.44;5047620;28;20461;-19
2022/05/25 11:54:21;;;;;;;;;;;;;;;21.89;52.08;100683.00;5050429;28;19940;-19
2022/05/25 11:56:46;;;;;;;;;;;;;;;21.97;52.12;100690.63;5046488;28;19957;-19
2022/05/25 11:59:20;;;;;;;;;;;;;;;22.04;51.46;100692.00;5049796;28;19975;-19
2022/05/25 12:01:45;;;;;;;;;;;;;;;22.09;50.77;100683.66;5030990;28;20335;-20
2022/05/25 12:04:24;;;;;;;;;;;;;;;22.11;50.39;100687.13;5049363;28;19920;-19
2022/05/25 12:06:49;;;;;;;;;;;;;;;22.10;49.53;100688.94;5042851;28;19950;-19
2022/05/25 12:09:14;;;;;;;;;;;;;;;22.07;49.43;100689.13;5050778;28;20019;-20
2022/05/25 12:11:40;;;;;;;;;;;;;;;22.08;49.70;100682.81;5047762;28;20042;-19
2022/05/25 12:14:24;;;;;;;;;;;;;;;22.10;48.62;100678.22;5032635;28;20368;-19
2022/05/25 12:16:49;;;;;;;;;;;;;;;22.11;48.05;100676.41;5048526;28;20191;-19
2022/05/25 12:19:18;;;;;;;;;;;;;;;22.11;47.91;100685.28;5045368;28;19979;-19
2022/05/25 12:21:50;;;;;;;;;;;;;;;22.07;47.67;100686.44;5045483;28;19912;-20
2022/05/25 12:24:26;;;;;;;;;;;;;;;22.07;47.90;100689.13;5049004;28;19909;-20
2022/05/25 12:26:51;;;;;;;;;;;;;;;22.04;48.12;100675.91;5047101;28;20292;-20
2022/05/25 12:29:21;;;;;;;;;;;;;;;22.05;48.32;100674.94;5046832;28;19916;-19
2022/05/25 12:31:47;;;;;;;;;;;;;;;22.05;47.55;100685.66;5033381;28;20018;-19
2022/05/25 12:34:12;;;;;;;;;;;;;;;22.10;48.27;100674.63;5028237;28;19988;-19
2022/05/25 12:36:38;;;;;;;;;;;;;;;22.20;47.51;100683.91;5043570;28;19916;-19
2022/05/25 12:39:03;;;;;;;;;;;;;;;22.27;47.62;100681.72;5047705;28;20307;-19
2022/05/25 12:41:37;;;;;;;;;;;;;;;22.32;47.47;100684.16;5048368;28;19927;-19
2022/05/25 12:49:35;;;;;;;;;;;;;;;22.53;46.83;100676.63;5045505;28;19967;-19
2022/05/25 12:52:00;;;;;;;;;;;;;;;22.55;45.84;100672.88;5048296;28;19940;-19
2022/05/25 12:54:31;;;;;;;;;;;;;;;22.58;46.23;100663.84;5027880;28;19975;-19
2022/05/25 12:56:56;;;;;;;;;;;;;;;22.66;46.78;100661.53;5028289;28;19963;-19
2022/05/25 12:59:27;;;;;;;;;;;;;;;22.61;45.13;100663.63;5028638;28;19909;-19
2022/05/25 13:02:12;;;;;;;;;;;;;;;22.50;44.77;100663.38;5048875;28;19916;-19
2022/05/25 13:04:43;;;;;;;;;;;;;;;22.75;45.75;100667.31;5049575;28;19916;-19
2022/05/25 13:07:21;;;;;;;;;;;;;;;22.83;44.17;100662.31;5047362;28;20456;-19
2022/05/25 13:09:46;;;;;;;;;;;;;;;22.91;43.46;100673.47;5030461;28;20388;-19
2022/05/25 13:12:31;;;;;;;;;;;;;;;23.09;43.35;100665.22;5027957;28;20010;-19
2022/05/25 13:14:56;;;;;;;;;;;;;;;23.12;44.10;100656.97;5045885;28;19983;-19
2022/05/25 13:17:41;;;;;;;;;;;;;;;23.10;43.86;100656.19;5047577;28;20042;-19
2022/05/25 13:20:12;;;;;;;;;;;;;;;23.28;43.88;100659.53;5048012;28;19924;-19
2022/05/25 13:22:38;;;;;;;;;;;;;;;23.38;44.12;100659.00;5045515;28;19971;-19
2022/05/25 13:25:03;;;;;;;;;;;;;;;23.40;43.03;100665.16;5015352;28;20289;-19
2022/05/25 13:27:53;;;;;;;;;;;;;;;23.36;43.49;100664.50;5044492;28;19909;-19
2022/05/25 13:30:29;;;;;;;;;;;;;;;23.44;42.66;100662.16;5029704;28;19916;-19
2022/05/25 13:33:14;;;;;;;;;;;;;;;23.54;41.48;100661.59;5029560;28;19917;-19
2022/05/25 13:35:57;;;;;;;;;;;;;;;23.59;42.03;100654.06;5043334;28;19991;-19
2022/05/25 13:38:42;;;;;;;;;;;;;;;23.57;41.74;100648.78;5044603;28;19917;-20
2022/05/25 13:41:13;;;;;;;;;;;;;;;23.60;42.43;100650.41;5037825;28;19913;-19